createdAt,value
2022-10-13T00:01:15.022Z,9.70
2022-10-13T00:03:46.139Z,9.63
2022-10-13T00:06:24.679Z,9.25
2022-10-13T00:08:52.093Z,9.60
2022-10-13T00:11:31.454Z,8.73
2022-10-13T00:14:03.607Z,9.15
2022-10-13T00:16:33.696Z,10.55
2022-10-13T00:19:00.766Z,9.85
2022-10-13T00:21:28.828Z,9.38
2022-10-13T00:23:56.875Z,8.45
2022-10-13T00:26:26.268Z,9.80
2022-10-13T00:28:55.811Z,9.43
2022-10-13T00:31:30.008Z,9.35
2022-10-13T00:33:59.829Z,9.27
2022-10-13T00:36:27.232Z,9.70
2022-10-13T00:38:56.174Z,9.15
2022-10-13T00:41:23.336Z,9.48
2022-10-13T00:43:55.181Z,9.57
2022-10-13T00:46:25.234Z,10.10
2022-10-13T00:51:34.126Z,9.70
2022-10-13T00:54:05.848Z,9.82
2022-10-13T00:56:36.967Z,10.05
2022-10-13T00:59:11.195Z,9.45
2022-10-13T01:01:40.053Z,9.18
2022-10-13T01:04:07.108Z,9.95
2022-10-13T01:06:34.531Z,9.25
2022-10-13T01:09:01.592Z,9.63
2022-10-13T01:11:56.584Z,10.25
2022-10-13T01:14:45.208Z,9.23
2022-10-13T01:17:41.903Z,9.50
2022-10-13T01:20:36.771Z,9.18
2022-10-13T01:24:08.999Z,10.13
2022-10-13T01:27:01.207Z,9.80
2022-10-13T01:32:38.371Z,10.35
2022-10-13T01:35:20.443Z,9.63
2022-10-13T01:38:04.437Z,10.15
2022-10-13T01:41:02.236Z,9.48
2022-10-13T01:43:42.879Z,9.38
2022-10-13T01:46:29.382Z,9.60
2022-10-13T01:49:02.039Z,10.13
2022-10-13T01:51:31.508Z,9.95
2022-10-13T01:53:58.986Z,9.05
2022-10-13T01:56:26.336Z,9.27
2022-10-13T01:58:59.540Z,10.20
2022-10-13T02:01:41.027Z,9.35
2022-10-13T02:04:48.740Z,9.85
2022-10-13T02:07:19.687Z,9.35
2022-10-13T02:10:02.589Z,9.73
2022-10-13T02:13:04.770Z,9.05
2022-10-13T02:15:40.614Z,9.13
2022-10-13T02:18:12.219Z,9.27
2022-10-13T02:20:42.330Z,8.98
2022-10-13T02:23:18.448Z,9.45
2022-10-13T02:25:47.554Z,9.65
2022-10-13T02:28:16.060Z,9.15
2022-10-13T02:30:46.512Z,9.15
2022-10-13T02:33:15.458Z,9.13
2022-10-13T02:35:43.230Z,8.90
2022-10-13T02:38:12.518Z,8.95
2022-10-13T02:40:39.676Z,9.32
2022-10-13T02:43:06.976Z,9.65
2022-10-13T02:45:34.471Z,9.57
2022-10-13T02:48:01.458Z,8.20
2022-10-13T02:50:29.546Z,9.45
2022-10-13T02:52:56.850Z,9.02
2022-10-13T02:55:23.832Z,9.10
2022-10-13T02:57:58.222Z,8.90
2022-10-13T03:00:25.798Z,9.13
2022-10-13T03:02:53.062Z,9.23
2022-10-13T03:05:20.213Z,9.02
2022-10-13T03:07:47.247Z,9.30
2022-10-13T03:14:37.117Z,8.82
2022-10-13T03:17:04.584Z,9.20
2022-10-13T03:19:31.964Z,9.85
2022-10-13T03:21:58.882Z,9.20
2022-10-13T03:24:25.820Z,9.05
2022-10-13T03:26:52.782Z,9.05
2022-10-13T03:29:21.000Z,9.13
2022-10-13T03:31:48.069Z,8.70
2022-10-13T03:34:17.453Z,8.98
2022-10-13T03:36:44.327Z,9.05
2022-10-13T03:39:11.334Z,8.88
2022-10-13T03:41:38.285Z,9.68
2022-10-13T03:44:05.526Z,9.68
2022-10-13T03:46:32.502Z,9.57
2022-10-13T03:48:59.548Z,9.48
2022-10-13T03:51:26.555Z,9.75
2022-10-13T03:53:53.977Z,9.57
2022-10-13T03:56:25.252Z,8.98
2022-10-13T03:58:55.549Z,9.05
2022-10-13T04:01:25.964Z,8.73
2022-10-13T04:03:55.711Z,9.10
2022-10-13T04:06:26.047Z,9.50
2022-10-13T04:08:54.471Z,9.88
2022-10-13T04:11:22.510Z,8.88
2022-10-13T04:13:58.178Z,9.35
2022-10-13T04:16:29.736Z,9.07
2022-10-13T04:19:04.722Z,9.27
2022-10-13T04:21:35.045Z,10.05
2022-10-13T04:24:03.389Z,9.07
2022-10-13T04:26:34.349Z,10.10
2022-10-13T04:29:09.476Z,9.80
2022-10-13T04:31:37.096Z,9.50
2022-10-13T04:34:05.621Z,9.68
2022-10-13T04:36:32.598Z,10.18
2022-10-13T04:38:59.479Z,9.85
2022-10-13T04:41:27.865Z,10.05
2022-10-13T04:43:55.290Z,9.55
2022-10-13T04:46:26.789Z,9.40
2022-10-13T04:48:57.474Z,10.02
2022-10-13T04:51:29.632Z,9.65
2022-10-13T04:54:01.936Z,9.23
2022-10-13T04:56:29.458Z,9.95
2022-10-13T04:59:05.891Z,10.02
2022-10-13T05:01:33.497Z,9.35
2022-10-13T05:04:03.723Z,9.70
2022-10-13T05:06:58.762Z,9.70
2022-10-13T05:09:27.911Z,9.77
2022-10-13T05:11:55.281Z,9.60
2022-10-13T05:14:23.438Z,9.73
2022-10-13T05:16:50.589Z,10.18
2022-10-13T05:19:17.625Z,10.52
2022-10-13T05:21:44.887Z,9.77
2022-10-13T05:24:13.722Z,9.80
2022-10-13T05:26:42.008Z,9.10
2022-10-13T05:29:09.067Z,9.82
2022-10-13T05:31:36.784Z,9.50
2022-10-13T05:34:03.856Z,9.88
2022-10-13T05:36:34.762Z,9.40
2022-10-13T05:39:10.026Z,10.13
2022-10-13T05:41:39.256Z,10.55
2022-10-13T05:44:13.969Z,10.35
2022-10-13T05:46:53.875Z,9.70
2022-10-13T05:49:20.980Z,10.65
2022-10-13T05:51:55.655Z,9.90
2022-10-13T05:54:30.078Z,10.50
2022-10-13T05:57:12.147Z,10.32
2022-10-13T05:59:49.222Z,10.63
2022-10-13T06:02:20.329Z,10.13
2022-10-13T06:04:53.827Z,10.73
2022-10-13T06:07:21.200Z,10.73
2022-10-13T06:09:49.043Z,10.52
2022-10-13T06:12:23.288Z,9.80
2022-10-13T06:17:17.397Z,11.85
2022-10-13T06:19:45.436Z,11.68
2022-10-13T06:22:12.673Z,11.65
2022-10-13T06:24:39.724Z,11.60
2022-10-13T06:27:10.595Z,11.30
2022-10-13T06:29:38.152Z,11.32
2022-10-13T06:32:06.091Z,11.70
2022-10-13T06:34:33.528Z,11.40
2022-10-13T06:37:00.575Z,11.07
2022-10-13T06:39:27.600Z,12.43
2022-10-13T06:41:55.335Z,11.85
2022-10-13T06:44:33.227Z,11.40
2022-10-13T06:47:03.856Z,11.25
2022-10-13T06:49:31.063Z,10.55
2022-10-13T06:52:00.136Z,11.73
2022-10-13T06:54:27.170Z,10.68
2022-10-13T06:56:55.464Z,10.75
2022-10-13T06:59:22.552Z,10.95
2022-10-13T07:01:51.712Z,10.25
2022-10-13T07:04:22.989Z,10.80
2022-10-13T07:06:50.929Z,11.15
2022-10-13T07:09:18.019Z,11.07
2022-10-13T07:11:50.932Z,11.40
2022-10-13T07:14:17.963Z,10.68
2022-10-13T07:16:45.020Z,10.43
2022-10-13T07:19:12.321Z,11.15
2022-10-13T07:21:41.786Z,11.35
2022-10-13T07:24:11.307Z,11.00
2022-10-13T07:26:38.537Z,10.23
2022-10-13T07:29:08.048Z,10.75
2022-10-13T07:31:38.448Z,11.52
2022-10-13T07:34:06.677Z,10.20
2022-10-13T07:36:33.907Z,10.85
2022-10-13T07:39:03.322Z,11.52
2022-10-13T07:41:31.468Z,10.68
2022-10-13T07:43:58.676Z,10.93
2022-10-13T07:46:25.839Z,10.68
2022-10-13T07:48:54.403Z,11.10
2022-10-13T07:51:23.328Z,11.10
2022-10-13T07:53:50.870Z,10.55
2022-10-13T07:56:18.027Z,11.52
2022-10-13T07:58:48.249Z,10.80
2022-10-13T08:01:16.702Z,10.80
2022-10-13T08:03:49.140Z,11.02
2022-10-13T08:06:18.568Z,11.30
2022-10-13T08:08:46.040Z,10.43
2022-10-13T08:11:17.913Z,11.43
2022-10-13T08:13:50.550Z,11.23
2022-10-13T08:16:23.491Z,11.45
2022-10-13T08:18:50.701Z,10.93
2022-10-13T08:21:52.798Z,11.27
2022-10-13T08:24:15.840Z,11.32
2022-10-13T08:29:28.138Z,11.68
2022-10-13T08:31:55.767Z,11.13
2022-10-13T08:34:24.778Z,11.48
2022-10-13T08:36:56.254Z,11.05
2022-10-13T08:39:25.180Z,12.55
2022-10-13T08:41:54.213Z,11.55
2022-10-13T08:47:49.077Z,11.35
2022-10-13T08:50:23.403Z,10.75
2022-10-13T08:56:11.420Z,11.18
2022-10-13T08:58:43.840Z,11.98
2022-10-13T09:01:10.743Z,12.43
2022-10-13T09:04:31.907Z,11.80
2022-10-13T09:07:27.669Z,11.60
2022-10-13T09:09:56.293Z,11.18
2022-10-13T09:12:25.616Z,11.85
2022-10-13T09:15:09.696Z,11.65
2022-10-13T09:17:41.349Z,11.57
2022-10-13T09:20:22.440Z,11.00
2022-10-13T09:23:23.034Z,11.75
2022-10-13T09:25:52.750Z,11.57
2022-10-13T09:28:28.356Z,11.23
2022-10-13T09:31:24.276Z,11.27
2022-10-13T09:34:13.972Z,11.35
2022-10-13T09:37:06.177Z,10.43
2022-10-13T09:39:34.068Z,10.02
2022-10-13T09:42:25.540Z,10.88
2022-10-13T09:45:01.300Z,11.55
2022-10-13T09:47:33.070Z,10.90
2022-10-13T09:50:19.451Z,11.07
2022-10-13T09:52:48.570Z,10.45
2022-10-13T09:55:35.345Z,10.32
2022-10-13T09:58:30.177Z,10.27
2022-10-13T10:03:33.775Z,10.30
2022-10-13T10:06:06.842Z,11.10
2022-10-13T10:09:05.034Z,10.85
2022-10-13T10:11:43.270Z,10.10
2022-10-13T10:14:25.461Z,9.80
2022-10-13T10:17:23.487Z,10.30
2022-10-13T10:20:41.814Z,10.18
2022-10-13T10:23:29.138Z,10.30
2022-10-13T10:26:32.642Z,9.80
2022-10-13T10:29:28.787Z,9.23
2022-10-13T10:32:19.532Z,9.45
2022-10-13T10:35:04.709Z,9.02
2022-10-13T10:38:00.812Z,9.15
2022-10-13T10:40:58.402Z,8.95
2022-10-13T10:43:51.281Z,9.30
2022-10-13T10:46:34.735Z,9.02
2022-10-13T10:49:15.497Z,9.20
2022-10-13T10:51:43.614Z,9.48
2022-10-13T10:54:21.924Z,9.15
2022-10-13T10:57:08.604Z,8.90
2022-10-13T11:03:33.601Z,9.23
2022-10-13T11:06:06.009Z,9.25
2022-10-13T11:08:46.996Z,10.43
2022-10-13T11:11:26.677Z,10.52
2022-10-13T11:14:06.830Z,10.30
2022-10-13T11:16:58.798Z,8.82
2022-10-13T11:19:33.449Z,9.50
2022-10-13T11:22:00.385Z,9.73
2022-10-13T11:24:39.360Z,9.90
2022-10-13T11:27:11.872Z,10.30
2022-10-13T11:29:49.023Z,10.57
2022-10-13T11:32:25.300Z,10.95
2022-10-13T11:35:12.590Z,9.77
2022-10-13T11:38:06.826Z,9.98
2022-10-13T11:41:04.004Z,10.45
2022-10-13T11:44:04.236Z,11.60
2022-10-13T11:47:02.731Z,11.70
2022-10-13T11:50:21.268Z,11.32
2022-10-13T11:53:23.151Z,10.63
2022-10-13T11:55:55.805Z,10.85
2022-10-13T11:58:25.810Z,11.98
2022-10-13T12:01:04.595Z,12.20
2022-10-13T12:03:41.977Z,11.27
2022-10-13T12:06:35.569Z,11.95
2022-10-13T12:09:19.122Z,11.57
2022-10-13T12:11:47.638Z,12.85
2022-10-13T12:14:24.146Z,12.88
2022-10-13T12:17:00.093Z,13.70
2022-10-13T12:19:31.060Z,12.48
2022-10-13T12:22:01.914Z,13.60
2022-10-13T12:24:31.204Z,12.95
2022-10-13T12:26:59.283Z,14.35
2022-10-13T12:29:34.833Z,14.30
2022-10-13T12:32:06.172Z,12.68
2022-10-13T12:34:35.984Z,15.43
2022-10-13T12:37:21.861Z,24.42
2022-10-13T12:39:49.429Z,15.07
2022-10-13T12:42:18.963Z,17.70
2022-10-13T12:44:46.547Z,12.20
2022-10-13T12:47:44.682Z,11.95
2022-10-13T12:50:29.944Z,8.85
2022-10-13T12:53:12.179Z,13.73
2022-10-13T12:56:03.682Z,12.75
2022-10-13T12:58:35.033Z,10.25
2022-10-13T13:01:14.125Z,9.60
2022-10-13T13:03:43.671Z,10.00
2022-10-13T13:06:26.796Z,11.60
2022-10-13T13:09:26.932Z,24.27
2022-10-13T13:12:13.209Z,11.40
2022-10-13T13:14:49.524Z,12.40
2022-10-13T13:17:45.393Z,13.60
2022-10-13T13:20:32.815Z,25.38
2022-10-13T13:23:00.746Z,9.88
2022-10-13T13:25:28.044Z,11.27
2022-10-13T13:27:55.107Z,8.90
2022-10-13T13:30:24.121Z,9.75
2022-10-13T13:32:51.528Z,9.88
2022-10-13T13:35:18.926Z,19.20
2022-10-13T13:37:52.301Z,14.10
2022-10-13T13:40:27.618Z,12.57
2022-10-13T13:42:55.846Z,11.32
2022-10-13T13:45:26.536Z,10.57
2022-10-13T13:47:59.552Z,10.65
2022-10-13T13:50:34.623Z,13.55
2022-10-13T13:53:04.926Z,13.55
2022-10-13T13:55:32.586Z,16.40
2022-10-13T13:58:00.881Z,14.02
2022-10-13T14:00:27.991Z,13.40
2022-10-13T14:02:57.195Z,12.02
2022-10-13T14:05:24.721Z,11.40
2022-10-13T14:07:55.088Z,11.43
2022-10-13T14:10:22.322Z,15.20
2022-10-13T14:12:49.314Z,13.02
2022-10-13T14:15:17.108Z,12.68
2022-10-13T14:17:44.181Z,11.73
2022-10-13T14:20:11.663Z,11.98
2022-10-13T14:22:39.530Z,11.35
2022-10-13T14:25:07.648Z,11.80
2022-10-13T14:27:35.519Z,11.88
2022-10-13T14:30:09.257Z,11.40
2022-10-13T14:32:39.536Z,11.20
2022-10-13T14:35:08.200Z,11.27
2022-10-13T14:37:35.911Z,11.45
2022-10-13T14:40:03.528Z,11.45
2022-10-13T14:42:31.496Z,11.45
2022-10-13T14:44:58.611Z,11.27
2022-10-13T14:47:25.661Z,11.75
2022-10-13T14:49:52.805Z,11.57
2022-10-13T14:52:19.809Z,12.07
2022-10-13T14:54:48.889Z,12.38
2022-10-13T14:57:16.319Z,14.40
2022-10-13T14:59:43.974Z,12.63
2022-10-13T15:02:12.052Z,12.25
2022-10-13T15:04:42.114Z,14.18
2022-10-13T15:07:09.140Z,20.33
2022-10-13T15:09:52.643Z,12.85
2022-10-13T15:12:25.967Z,11.98
2022-10-13T15:14:52.983Z,13.82
2022-10-13T15:17:20.432Z,11.98
2022-10-13T15:19:47.765Z,12.40
2022-10-13T15:22:14.799Z,12.65
2022-10-13T15:24:43.819Z,14.32
2022-10-13T15:27:14.146Z,11.95
2022-10-13T15:29:41.173Z,11.70
2022-10-13T15:32:18.016Z,11.38
2022-10-13T15:34:49.858Z,11.00
2022-10-13T15:37:16.952Z,11.43
2022-10-13T15:39:43.982Z,11.93
2022-10-13T15:42:11.629Z,11.23
2022-10-13T15:45:08.235Z,11.52
2022-10-13T15:47:25.654Z,10.98
2022-10-13T15:49:52.743Z,11.95
2022-10-13T15:52:20.707Z,10.80
2022-10-13T15:54:51.319Z,10.68
2022-10-13T15:57:18.595Z,11.00
2022-10-13T15:59:45.575Z,10.50
2022-10-13T16:02:12.576Z,10.60
2022-10-13T16:04:39.661Z,10.40
2022-10-13T16:07:06.680Z,10.02
2022-10-13T16:09:33.761Z,16.83
2022-10-13T16:12:02.115Z,13.30
2022-10-13T16:14:29.260Z,10.60
2022-10-13T16:16:58.129Z,10.27
2022-10-13T16:19:25.124Z,10.50
2022-10-13T16:21:52.177Z,10.40
2022-10-13T16:24:20.491Z,11.18
2022-10-13T16:26:47.445Z,10.93
2022-10-13T16:29:15.427Z,10.57
2022-10-13T16:31:42.410Z,10.45
2022-10-13T16:34:11.047Z,10.20
2022-10-13T16:36:38.039Z,10.48
2022-10-13T16:39:05.042Z,13.82
2022-10-13T16:41:32.047Z,11.68
2022-10-13T16:43:59.073Z,12.52
2022-10-13T16:46:26.170Z,13.23
2022-10-13T16:48:53.356Z,13.50
2022-10-13T16:51:24.421Z,13.63
2022-10-13T16:53:54.639Z,11.73
2022-10-13T16:56:24.452Z,12.98
2022-10-13T16:59:01.759Z,22.83
2022-10-13T17:01:30.407Z,19.27
2022-10-13T17:03:57.903Z,13.05
2022-10-13T17:06:27.549Z,12.30
2022-10-13T17:09:00.428Z,13.65
2022-10-13T17:11:30.998Z,12.57
2022-10-13T17:14:00.495Z,11.77
2022-10-13T17:16:31.309Z,13.30
2022-10-13T17:18:58.835Z,12.60
2022-10-13T17:21:33.740Z,11.88
2022-10-13T17:24:00.799Z,11.57
2022-10-13T17:26:27.959Z,10.93
2022-10-13T17:28:56.185Z,9.60
2022-10-13T17:31:24.839Z,9.35
2022-10-13T17:33:52.519Z,9.68
2022-10-13T17:36:28.966Z,9.57
2022-10-13T17:39:04.228Z,9.45
2022-10-13T17:41:31.906Z,10.30
2022-10-13T17:43:58.927Z,8.73
2022-10-13T17:46:38.425Z,9.30
2022-10-13T17:49:11.415Z,9.07
2022-10-13T17:51:43.676Z,9.10
2022-10-13T17:54:16.145Z,8.38
2022-10-13T17:56:45.184Z,8.60
2022-10-13T17:59:14.124Z,8.48
2022-10-13T18:01:42.610Z,8.85
2022-10-13T18:04:16.566Z,9.05
2022-10-13T18:06:45.068Z,9.20
2022-10-13T18:09:18.417Z,9.15
2022-10-13T18:11:51.206Z,9.57
2022-10-13T18:14:21.495Z,9.32
2022-10-13T18:16:50.676Z,10.07
2022-10-13T18:19:19.485Z,9.20
2022-10-13T18:21:46.780Z,10.70
2022-10-13T18:24:15.320Z,10.15
2022-10-13T18:26:42.416Z,11.88
2022-10-13T18:29:12.224Z,12.90
2022-10-13T18:31:41.509Z,12.30
2022-10-13T18:34:15.982Z,12.70
2022-10-13T18:36:47.330Z,12.60
2022-10-13T18:39:15.523Z,12.80
2022-10-13T18:41:46.065Z,12.75
2022-10-13T18:44:13.866Z,12.75
2022-10-13T18:46:41.689Z,13.40
2022-10-13T18:49:13.728Z,13.23
2022-10-13T18:51:42.309Z,13.35
2022-10-13T18:54:10.728Z,13.15
2022-10-13T18:56:39.878Z,13.40
2022-10-13T18:59:08.427Z,14.00
2022-10-13T19:01:38.083Z,14.10
2022-10-13T19:04:06.450Z,14.32
2022-10-13T19:06:33.664Z,14.35
2022-10-13T19:09:07.281Z,13.93
2022-10-13T19:11:37.585Z,13.93
2022-10-13T19:14:11.396Z,14.65
2022-10-13T19:16:42.280Z,15.00
2022-10-13T19:19:09.771Z,15.73
2022-10-13T19:21:38.603Z,15.52
2022-10-13T19:24:07.886Z,16.02
2022-10-13T19:26:37.083Z,16.02
2022-10-13T19:29:13.491Z,15.63
2022-10-13T19:31:42.343Z,15.65
2022-10-13T19:34:12.296Z,15.43
2022-10-13T19:36:44.671Z,16.20
2022-10-13T19:39:24.147Z,15.95
2022-10-13T19:41:54.359Z,17.30
2022-10-13T19:44:23.786Z,16.55
2022-10-13T19:46:52.307Z,17.20
2022-10-13T19:49:23.100Z,17.35
2022-10-13T19:51:50.490Z,16.70
2022-10-13T19:54:20.479Z,17.65
2022-10-13T19:56:50.262Z,18.08
2022-10-13T19:59:19.735Z,18.50
2022-10-13T20:01:47.594Z,19.08
2022-10-13T20:04:18.412Z,19.77
2022-10-13T20:06:46.263Z,19.52
2022-10-13T20:09:13.444Z,20.42
2022-10-13T20:11:40.819Z,19.58
2022-10-13T20:14:08.926Z,19.92
2022-10-13T20:16:37.834Z,19.80
2022-10-13T20:19:06.902Z,19.20
2022-10-13T20:21:34.016Z,21.25
2022-10-13T20:24:01.013Z,20.50
2022-10-13T20:26:28.151Z,21.27
2022-10-13T20:28:55.251Z,21.15
2022-10-13T20:31:23.093Z,20.45
2022-10-13T20:33:56.310Z,20.58
2022-10-13T20:36:25.756Z,21.33
2022-10-13T20:38:53.380Z,21.67
2022-10-13T20:41:32.611Z,21.05
2022-10-13T20:44:01.286Z,20.67
2022-10-13T20:46:31.038Z,20.17
2022-10-13T20:49:13.798Z,20.95
2022-10-13T20:51:43.138Z,21.02
2022-10-13T20:54:15.070Z,21.33
2022-10-13T20:56:43.562Z,21.27
2022-10-13T20:59:14.748Z,21.55
2022-10-13T21:01:42.577Z,22.40
2022-10-13T21:04:11.337Z,22.40
2022-10-13T21:06:40.771Z,22.85
2022-10-13T21:09:08.941Z,22.83
2022-10-13T21:11:39.612Z,22.50
2022-10-13T21:14:06.955Z,22.55
2022-10-13T21:16:34.678Z,23.27
2022-10-13T21:19:02.992Z,23.17
2022-10-13T21:21:34.450Z,24.48
2022-10-13T21:24:06.564Z,22.25
2022-10-13T21:26:35.108Z,23.08
2022-10-13T21:29:02.591Z,23.10
2022-10-13T21:31:30.617Z,23.88
2022-10-13T21:33:59.748Z,23.83
2022-10-13T21:36:32.421Z,24.23
2022-10-13T21:39:04.704Z,24.80
2022-10-13T21:41:33.100Z,25.37
2022-10-13T21:44:00.029Z,25.23
2022-10-13T21:46:34.339Z,25.67
2022-10-13T21:49:05.331Z,27.23
2022-10-13T21:51:36.284Z,26.35
2022-10-13T21:54:09.467Z,26.35
2022-10-13T21:56:38.062Z,26.73
2022-10-13T21:59:06.015Z,27.75
2022-10-13T22:01:34.218Z,26.95
2022-10-13T22:04:06.266Z,26.48
2022-10-13T22:06:34.574Z,26.45
2022-10-13T22:09:05.022Z,26.75
2022-10-13T22:11:35.083Z,26.83
2022-10-13T22:14:07.856Z,25.08
2022-10-13T22:16:40.448Z,26.30
2022-10-13T22:19:07.623Z,27.10
2022-10-13T22:21:40.787Z,27.50
2022-10-13T22:24:12.762Z,27.45
2022-10-13T22:26:43.166Z,28.20
2022-10-13T22:29:14.600Z,28.25
2022-10-13T22:31:43.494Z,27.48
2022-10-13T22:34:13.020Z,25.77
2022-10-13T22:36:44.855Z,29.02
2022-10-13T22:39:13.485Z,27.83
2022-10-13T22:41:41.183Z,28.98
2022-10-13T22:44:08.262Z,28.95
2022-10-13T22:46:38.220Z,29.75
2022-10-13T22:49:06.779Z,28.45
2022-10-13T22:51:36.682Z,30.60
2022-10-13T22:54:05.591Z,28.45
2022-10-13T22:56:34.739Z,28.20
2022-10-13T22:59:08.284Z,28.35
2022-10-13T23:01:36.529Z,29.25
2022-10-13T23:04:04.159Z,29.08
2022-10-13T23:06:34.692Z,28.67
2022-10-13T23:09:09.386Z,27.60
2022-10-13T23:11:38.829Z,28.58
2022-10-13T23:14:08.411Z,29.65
2022-10-13T23:16:35.579Z,28.23
2022-10-13T23:19:05.835Z,27.55
2022-10-13T23:21:33.107Z,28.33
2022-10-13T23:24:05.749Z,28.40
2022-10-13T23:26:35.012Z,29.75
2022-10-13T23:29:02.744Z,27.00
2022-10-13T23:31:29.984Z,29.55
2022-10-13T23:33:58.610Z,29.52
2022-10-13T23:36:30.215Z,29.25
2022-10-13T23:39:06.676Z,28.20
2022-10-13T23:41:34.556Z,29.23
2022-10-13T23:44:04.416Z,28.63
2022-10-13T23:46:31.615Z,26.98
2022-10-13T23:48:58.610Z,28.10
2022-10-13T23:51:26.470Z,24.80
2022-10-13T23:53:54.415Z,25.40
2022-10-13T23:56:22.400Z,25.42
2022-10-13T23:58:49.457Z,24.23
